sensor_id;sensor_type;location;lat;lon;timestamp;temperature;humidity
3466;DHT22;1747;48.884;9.160;2024-01-25T00:00:17;11.20;99.90
3466;DHT22;1747;48.884;9.160;2024-01-25T00:02:44;11.20;99.90
3466;DHT22;1747;48.884;9.160;2024-01-25T00:05:11;11.20;99.90
3466;DHT22;1747;48.884;9.160;2024-01-25T00:07:45;11.20;99.90
3466;DHT22;1747;48.884;9.160;2024-01-25T00:10:12;11.20;99.90
3466;DHT22;1747;48.884;9.160;2024-01-25T00:12:40;11.20;99.90
3466;DHT22;1747;48.884;9.160;2024-01-25T00:15:08;11.20;99.90
3466;DHT22;1747;48.884;9.160;2024-01-25T00:17:35;11.20;99.90
3466;DHT22;1747;48.884;9.160;2024-01-25T00:20:03;11.20;99.90
3466;DHT22;1747;48.884;9.160;2024-01-25T00:22:30;11.10;99.90
3466;DHT22;1747;48.884;9.160;2024-01-25T00:24:58;11.10;99.90
3466;DHT22;1747;48.884;9.160;2024-01-25T00:27:24;11.10;99.90
3466;DHT22;1747;48.884;9.160;2024-01-25T00:29:53;11.10;99.90
3466;DHT22;1747;48.884;9.160;2024-01-25T00:32:19;11.10;99.90
3466;DHT22;1747;48.884;9.160;2024-01-25T00:34:47;11.10;99.90
3466;DHT22;1747;48.884;9.160;2024-01-25T00:37:14;11.10;99.90
3466;DHT22;1747;48.884;9.160;2024-01-25T00:39:42;11.20;99.90
3466;DHT22;1747;48.884;9.160;2024-01-25T00:42:12;11.20;99.90
3466;DHT22;1747;48.884;9.160;2024-01-25T00:44:40;11.20;99.90
3466;DHT22;1747;48.884;9.160;2024-01-25T00:47:09;11.10;99.90
3466;DHT22;1747;48.884;9.160;2024-01-25T00:49:37;11.10;99.90
3466;DHT22;1747;48.884;9.160;2024-01-25T00:52:04;11.20;99.90
3466;DHT22;1747;48.884;9.160;2024-01-25T00:54:32;11.20;99.90
3466;DHT22;1747;48.884;9.160;2024-01-25T00:56:59;11.20;99.90
3466;DHT22;1747;48.884;9.160;2024-01-25T00:59:26;11.30;99.90
3466;DHT22;1747;48.884;9.160;2024-01-25T01:01:55;11.30;99.90
3466;DHT22;1747;48.884;9.160;2024-01-25T01:04:26;11.20;99.90
3466;DHT22;1747;48.884;9.160;2024-01-25T01:06:53;11.30;99.90
3466;DHT22;1747;48.884;9.160;2024-01-25T01:09:20;11.30;99.90
3466;DHT22;1747;48.884;9.160;2024-01-25T01:11:47;11.30;99.90
3466;DHT22;1747;48.884;9.160;2024-01-25T01:14:16;11.30;99.90
3466;DHT22;1747;48.884;9.160;2024-01-25T01:16:42;11.30;99.90
3466;DHT22;1747;48.884;9.160;2024-01-25T01:19:09;11.30;99.90
3466;DHT22;1747;48.884;9.160;2024-01-25T01:21:37;11.30;99.90
3466;DHT22;1747;48.884;9.160;2024-01-25T01:24:09;11.30;99.90
3466;DHT22;1747;48.884;9.160;2024-01-25T01:26:35;11.30;99.90
3466;DHT22;1747;48.884;9.160;2024-01-25T01:29:02;11.30;99.90
3466;DHT22;1747;48.884;9.160;2024-01-25T01:31:29;11.40;99.90
3466;DHT22;1747;48.884;9.160;2024-01-25T01:33:56;11.30;99.90
3466;DHT22;1747;48.884;9.160;2024-01-25T01:36:23;11.30;99.90
3466;DHT22;1747;48.884;9.160;2024-01-25T01:38:52;11.30;99.90
3466;DHT22;1747;48.884;9.160;2024-01-25T01:41:18;11.30;99.90
3466;DHT22;1747;48.884;9.160;2024-01-25T01:43:45;11.30;99.90
3466;DHT22;1747;48.884;9.160;2024-01-25T01:46:19;11.20;99.90
3466;DHT22;1747;48.884;9.160;2024-01-25T01:48:47;11.30;99.90
3466;DHT22;1747;48.884;9.160;2024-01-25T01:51:14;11.30;99.90
3466;DHT22;1747;48.884;9.160;2024-01-25T01:53:41;11.30;99.90
3466;DHT22;1747;48.884;9.160;2024-01-25T01:56:09;11.30;99.90
3466;DHT22;1747;48.884;9.160;2024-01-25T01:58:36;11.30;99.90
3466;DHT22;1747;48.884;9.160;2024-01-25T02:01:05;11.30;99.90
3466;DHT22;1747;48.884;9.160;2024-01-25T02:03:32;11.30;99.90
3466;DHT22;1747;48.884;9.160;2024-01-25T02:05:59;11.30;99.90
3466;DHT22;1747;48.884;9.160;2024-01-25T02:08:28;11.30;99.90
3466;DHT22;1747;48.884;9.160;2024-01-25T02:10:55;11.30;99.90
3466;DHT22;1747;48.884;9.160;2024-01-25T02:13:23;11.20;99.90
3466;DHT22;1747;48.884;9.160;2024-01-25T02:15:50;11.20;99.90
3466;DHT22;1747;48.884;9.160;2024-01-25T02:18:17;11.20;99.90
3466;DHT22;1747;48.884;9.160;2024-01-25T02:20:43;11.20;99.90
3466;DHT22;1747;48.884;9.160;2024-01-25T02:23:12;11.20;99.90
3466;DHT22;1747;48.884;9.160;2024-01-25T02:25:38;11.10;99.90
3466;DHT22;1747;48.884;9.160;2024-01-25T02:28:06;11.10;99.90
3466;DHT22;1747;48.884;9.160;2024-01-25T02:30:32;11.00;99.90
3466;DHT22;1747;48.884;9.160;2024-01-25T02:32:59;11.10;99.90
3466;DHT22;1747;48.884;9.160;2024-01-25T02:35:26;11.00;99.90
3466;DHT22;1747;48.884;9.160;2024-01-25T02:37:53;11.10;99.90
3466;DHT22;1747;48.884;9.160;2024-01-25T02:40:21;11.20;99.90
3466;DHT22;1747;48.884;9.160;2024-01-25T02:42:48;11.10;99.90
3466;DHT22;1747;48.884;9.160;2024-01-25T02:45:15;11.10;99.90
3466;DHT22;1747;48.884;9.160;2024-01-25T02:47:41;11.20;99.90
3466;DHT22;1747;48.884;9.160;2024-01-25T02:50:09;11.10;99.90
3466;DHT22;1747;48.884;9.160;2024-01-25T02:52:36;11.10;99.90
3466;DHT22;1747;48.884;9.160;2024-01-25T02:55:03;11.10;99.90
3466;DHT22;1747;48.884;9.160;2024-01-25T02:57:31;11.00;99.90
3466;DHT22;1747;48.884;9.160;2024-01-25T02:59:58;11.10;99.90
3466;DHT22;1747;48.884;9.160;2024-01-25T03:02:25;11.10;99.90
3466;DHT22;1747;48.884;9.160;2024-01-25T03:04:52;11.10;99.90
3466;DHT22;1747;48.884;9.160;2024-01-25T03:07:19;11.10;99.90
3466;DHT22;1747;48.884;9.160;2024-01-25T03:09:46;11.10;99.90
3466;DHT22;1747;48.884;9.160;2024-01-25T03:12:12;11.00;99.90
3466;DHT22;1747;48.884;9.160;2024-01-25T03:14:41;10.90;99.90
3466;DHT22;1747;48.884;9.160;2024-01-25T03:17:07;10.90;99.90
3466;DHT22;1747;48.884;9.160;2024-01-25T03:19:34;10.90;99.90
3466;DHT22;1747;48.884;9.160;2024-01-25T03:22:01;10.90;99.90
3466;DHT22;1747;48.884;9.160;2024-01-25T03:24:28;11.00;99.90
3466;DHT22;1747;48.884;9.160;2024-01-25T03:26:54;11.00;99.90
3466;DHT22;1747;48.884;9.160;2024-01-25T03:29:21;11.10;99.90
3466;DHT22;1747;48.884;9.160;2024-01-25T03:31:49;11.00;99.90
3466;DHT22;1747;48.884;9.160;2024-01-25T03:34:16;10.90;99.90
3466;DHT22;1747;48.884;9.160;2024-01-25T03:36:43;10.90;99.90
3466;DHT22;1747;48.884;9.160;2024-01-25T03:39:10;10.80;99.90
3466;DHT22;1747;48.884;9.160;2024-01-25T03:41:37;10.80;99.90
3466;DHT22;1747;48.884;9.160;2024-01-25T03:44:04;10.90;99.90
3466;DHT22;1747;48.884;9.160;2024-01-25T03:46:30;10.80;99.90
3466;DHT22;1747;48.884;9.160;2024-01-25T03:48:59;10.80;99.90
3466;DHT22;1747;48.884;9.160;2024-01-25T03:51:25;10.80;99.90
3466;DHT22;1747;48.884;9.160;2024-01-25T03:53:52;10.80;99.90
3466;DHT22;1747;48.884;9.160;2024-01-25T03:56:20;10.80;99.90
3466;DHT22;1747;48.884;9.160;2024-01-25T03:58:48;10.90;99.90
3466;DHT22;1747;48.884;9.160;2024-01-25T04:01:15;10.90;99.90
3466;DHT22;1747;48.884;9.160;2024-01-25T04:03:42;11.00;99.90
3466;DHT22;1747;48.884;9.160;2024-01-25T04:06:10;10.90;99.90
3466;DHT22;1747;48.884;9.160;2024-01-25T04:08:37;11.00;99.90
3466;DHT22;1747;48.884;9.160;2024-01-25T04:11:03;10.90;99.90
3466;DHT22;1747;48.884;9.160;2024-01-25T04:13:30;10.90;99.90
3466;DHT22;1747;48.884;9.160;2024-01-25T04:15:57;11.00;99.90
3466;DHT22;1747;48.884;9.160;2024-01-25T04:18:24;11.00;99.90
3466;DHT22;1747;48.884;9.160;2024-01-25T04:20:51;11.00;99.90
3466;DHT22;1747;48.884;9.160;2024-01-25T04:23:19;10.90;99.90
3466;DHT22;1747;48.884;9.160;2024-01-25T04:25:46;10.90;99.90
3466;DHT22;1747;48.884;9.160;2024-01-25T04:28:14;10.90;99.90
3466;DHT22;1747;48.884;9.160;2024-01-25T04:30:41;10.90;99.90
3466;DHT22;1747;48.884;9.160;2024-01-25T04:33:08;10.90;99.90
3466;DHT22;1747;48.884;9.160;2024-01-25T04:35:35;10.90;99.90
3466;DHT22;1747;48.884;9.160;2024-01-25T04:38:01;10.80;99.90
3466;DHT22;1747;48.884;9.160;2024-01-25T04:40:30;10.70;99.90
3466;DHT22;1747;48.884;9.160;2024-01-25T04:42:56;10.80;99.90
3466;DHT22;1747;48.884;9.160;2024-01-25T04:45:24;10.80;99.90
3466;DHT22;1747;48.884;9.160;2024-01-25T04:47:51;10.70;99.90
3466;DHT22;1747;48.884;9.160;2024-01-25T04:50:18;10.70;99.90
3466;DHT22;1747;48.884;9.160;2024-01-25T04:52:44;10.70;99.90
3466;DHT22;1747;48.884;9.160;2024-01-25T04:55:11;10.70;99.90
3466;DHT22;1747;48.884;9.160;2024-01-25T04:57:39;10.70;99.90
3466;DHT22;1747;48.884;9.160;2024-01-25T05:00:07;10.60;99.90
3466;DHT22;1747;48.884;9.160;2024-01-25T05:02:34;10.60;99.90
3466;DHT22;1747;48.884;9.160;2024-01-25T05:05:01;10.60;99.90
3466;DHT22;1747;48.884;9.160;2024-01-25T05:07:28;10.50;99.90
3466;DHT22;1747;48.884;9.160;2024-01-25T05:09:55;10.50;99.90
3466;DHT22;1747;48.884;9.160;2024-01-25T05:12:21;10.40;99.90
3466;DHT22;1747;48.884;9.160;2024-01-25T05:14:50;10.40;99.90
3466;DHT22;1747;48.884;9.160;2024-01-25T05:17:16;10.40;99.90
3466;DHT22;1747;48.884;9.160;2024-01-25T05:19:43;10.40;99.90
3466;DHT22;1747;48.884;9.160;2024-01-25T05:22:10;10.30;99.90
3466;DHT22;1747;48.884;9.160;2024-01-25T05:24:37;10.30;99.90
3466;DHT22;1747;48.884;9.160;2024-01-25T05:27:04;10.20;99.90
3466;DHT22;1747;48.884;9.160;2024-01-25T05:29:31;10.20;99.90
3466;DHT22;1747;48.884;9.160;2024-01-25T05:31:59;10.20;99.90
3466;DHT22;1747;48.884;9.160;2024-01-25T05:34:26;10.20;99.90
3466;DHT22;1747;48.884;9.160;2024-01-25T05:36:53;10.20;99.90
3466;DHT22;1747;48.884;9.160;2024-01-25T05:39:47;10.20;99.90
3466;DHT22;1747;48.884;9.160;2024-01-25T05:42:36;10.10;99.90
3466;DHT22;1747;48.884;9.160;2024-01-25T05:45:21;10.10;99.90
3466;DHT22;1747;48.884;9.160;2024-01-25T05:47:57;10.10;99.90
3466;DHT22;1747;48.884;9.160;2024-01-25T05:50:24;10.10;99.90
3466;DHT22;1747;48.884;9.160;2024-01-25T05:52:51;10.00;99.90
3466;DHT22;1747;48.884;9.160;2024-01-25T05:55:18;9.90;99.90
3466;DHT22;1747;48.884;9.160;2024-01-25T05:57:57;9.90;99.90
3466;DHT22;1747;48.884;9.160;2024-01-25T06:00:24;9.80;99.90
3466;DHT22;1747;48.884;9.160;2024-01-25T06:02:50;9.80;99.90
3466;DHT22;1747;48.884;9.160;2024-01-25T06:05:21;9.70;99.90
3466;DHT22;1747;48.884;9.160;2024-01-25T06:07:49;9.60;99.90
3466;DHT22;1747;48.884;9.160;2024-01-25T06:10:16;9.50;99.90
3466;DHT22;1747;48.884;9.160;2024-01-25T06:12:44;9.60;99.90
3466;DHT22;1747;48.884;9.160;2024-01-25T06:15:19;9.60;99.90
3466;DHT22;1747;48.884;9.160;2024-01-25T06:17:47;9.70;99.90
3466;DHT22;1747;48.884;9.160;2024-01-25T06:23:47;9.50;99.90
3466;DHT22;1747;48.884;9.160;2024-01-25T06:26:14;9.40;99.90
3466;DHT22;1747;48.884;9.160;2024-01-25T06:28:47;9.30;99.90
3466;DHT22;1747;48.884;9.160;2024-01-25T06:34:13;9.10;99.90
3466;DHT22;1747;48.884;9.160;2024-01-25T06:36:40;9.10;99.90
3466;DHT22;1747;48.884;9.160;2024-01-25T06:39:09;9.00;99.90
3466;DHT22;1747;48.884;9.160;2024-01-25T06:41:37;8.90;99.90
3466;DHT22;1747;48.884;9.160;2024-01-25T06:44:04;8.80;99.90
3466;DHT22;1747;48.884;9.160;2024-01-25T06:46:31;8.70;99.90
3466;DHT22;1747;48.884;9.160;2024-01-25T06:48:58;8.70;99.90
3466;DHT22;1747;48.884;9.160;2024-01-25T06:51:25;8.60;99.90
3466;DHT22;1747;48.884;9.160;2024-01-25T06:53:52;8.50;99.90
3466;DHT22;1747;48.884;9.160;2024-01-25T06:56:20;8.50;99.90
3466;DHT22;1747;48.884;9.160;2024-01-25T06:58:47;8.40;99.90
3466;DHT22;1747;48.884;9.160;2024-01-25T07:01:20;8.40;99.90
3466;DHT22;1747;48.884;9.160;2024-01-25T07:03:48;8.30;99.90
3466;DHT22;1747;48.884;9.160;2024-01-25T07:06:16;8.20;99.90
3466;DHT22;1747;48.884;9.160;2024-01-25T07:08:43;7.70;99.90
3466;DHT22;1747;48.884;9.160;2024-01-25T07:11:09;7.60;99.90
3466;DHT22;1747;48.884;9.160;2024-01-25T07:13:40;7.50;99.90
3466;DHT22;1747;48.884;9.160;2024-01-25T07:16:07;7.50;99.90
3466;DHT22;1747;48.884;9.160;2024-01-25T07:18:34;7.50;99.90
3466;DHT22;1747;48.884;9.160;2024-01-25T07:21:01;7.50;99.90
3466;DHT22;1747;48.884;9.160;2024-01-25T07:23:29;7.50;99.90
3466;DHT22;1747;48.884;9.160;2024-01-25T07:25:56;7.50;99.90
3466;DHT22;1747;48.884;9.160;2024-01-25T07:28:23;7.50;99.90
3466;DHT22;1747;48.884;9.160;2024-01-25T07:30:51;7.60;99.90
3466;DHT22;1747;48.884;9.160;2024-01-25T07:33:18;7.70;99.90
3466;DHT22;1747;48.884;9.160;2024-01-25T07:35:47;7.80;99.90
3466;DHT22;1747;48.884;9.160;2024-01-25T07:38:15;7.90;99.90
3466;DHT22;1747;48.884;9.160;2024-01-25T07:40:42;8.00;99.90
3466;DHT22;1747;48.884;9.160;2024-01-25T07:43:09;7.90;99.90
3466;DHT22;1747;48.884;9.160;2024-01-25T07:45:37;7.80;99.90
3466;DHT22;1747;48.884;9.160;2024-01-25T07:48:07;7.80;99.90
3466;DHT22;1747;48.884;9.160;2024-01-25T07:50:34;7.70;99.90
3466;DHT22;1747;48.884;9.160;2024-01-25T07:53:04;7.60;99.90
3466;DHT22;1747;48.884;9.160;2024-01-25T07:55:31;7.40;99.90
3466;DHT22;1747;48.884;9.160;2024-01-25T07:57:58;7.40;99.90
3466;DHT22;1747;48.884;9.160;2024-01-25T08:00:25;7.50;99.90
3466;DHT22;1747;48.884;9.160;2024-01-25T08:02:52;7.50;99.90
3466;DHT22;1747;48.884;9.160;2024-01-25T08:05:21;7.60;99.90
3466;DHT22;1747;48.884;9.160;2024-01-25T08:07:51;7.70;99.90
3466;DHT22;1747;48.884;9.160;2024-01-25T08:10:20;7.80;99.90
3466;DHT22;1747;48.884;9.160;2024-01-25T08:12:47;7.80;99.90
3466;DHT22;1747;48.884;9.160;2024-01-25T08:15:14;7.90;99.90
3466;DHT22;1747;48.884;9.160;2024-01-25T08:17:41;8.10;99.90
3466;DHT22;1747;48.884;9.160;2024-01-25T08:20:09;8.20;99.90
3466;DHT22;1747;48.884;9.160;2024-01-25T08:22:40;8.30;99.90
3466;DHT22;1747;48.884;9.160;2024-01-25T08:25:08;8.30;99.90
3466;DHT22;1747;48.884;9.160;2024-01-25T08:27:35;8.40;99.90
3466;DHT22;1747;48.884;9.160;2024-01-25T08:30:03;8.60;99.90
3466;DHT22;1747;48.884;9.160;2024-01-25T08:32:30;8.70;99.90
3466;DHT22;1747;48.884;9.160;2024-01-25T08:34:58;8.80;99.90
3466;DHT22;1747;48.884;9.160;2024-01-25T08:37:26;9.00;99.90
3466;DHT22;1747;48.884;9.160;2024-01-25T08:39:55;9.10;99.90
3466;DHT22;1747;48.884;9.160;2024-01-25T08:42:22;9.30;99.90
3466;DHT22;1747;48.884;9.160;2024-01-25T08:44:49;9.40;99.90
3466;DHT22;1747;48.884;9.160;2024-01-25T08:47:17;9.50;99.90
3466;DHT22;1747;48.884;9.160;2024-01-25T08:49:44;9.70;99.90
3466;DHT22;1747;48.884;9.160;2024-01-25T08:52:11;9.70;99.90
3466;DHT22;1747;48.884;9.160;2024-01-25T08:54:39;9.80;99.90
3466;DHT22;1747;48.884;9.160;2024-01-25T08:57:07;9.80;99.90
3466;DHT22;1747;48.884;9.160;2024-01-25T08:59:37;9.80;99.90
3466;DHT22;1747;48.884;9.160;2024-01-25T09:02:04;9.80;99.90
3466;DHT22;1747;48.884;9.160;2024-01-25T09:04:31;9.80;99.90
3466;DHT22;1747;48.884;9.160;2024-01-25T09:06:59;10.00;99.90
3466;DHT22;1747;48.884;9.160;2024-01-25T09:09:26;10.10;99.90
3466;DHT22;1747;48.884;9.160;2024-01-25T09:11:53;10.10;99.90
3466;DHT22;1747;48.884;9.160;2024-01-25T09:14:22;10.30;99.90
3466;DHT22;1747;48.884;9.160;2024-01-25T09:16:49;10.40;99.90
3466;DHT22;1747;48.884;9.160;2024-01-25T09:19:16;10.60;99.90
3466;DHT22;1747;48.884;9.160;2024-01-25T09:21:43;10.70;99.90
3466;DHT22;1747;48.884;9.160;2024-01-25T09:24:12;10.90;99.90
3466;DHT22;1747;48.884;9.160;2024-01-25T09:26:40;11.00;99.90
3466;DHT22;1747;48.884;9.160;2024-01-25T09:29:10;11.10;99.90
3466;DHT22;1747;48.884;9.160;2024-01-25T09:31:39;11.20;99.90
3466;DHT22;1747;48.884;9.160;2024-01-25T09:34:06;11.30;99.90
3466;DHT22;1747;48.884;9.160;2024-01-25T09:36:32;11.40;99.90
3466;DHT22;1747;48.884;9.160;2024-01-25T09:39:00;11.30;99.90
3466;DHT22;1747;48.884;9.160;2024-01-25T09:41:27;11.30;99.90
3466;DHT22;1747;48.884;9.160;2024-01-25T09:43:54;11.40;99.90
3466;DHT22;1747;48.884;9.160;2024-01-25T09:46:21;11.40;99.90
3466;DHT22;1747;48.884;9.160;2024-01-25T09:48:51;11.50;99.90
3466;DHT22;1747;48.884;9.160;2024-01-25T09:51:18;11.50;99.90
3466;DHT22;1747;48.884;9.160;2024-01-25T09:53:45;11.40;99.90
3466;DHT22;1747;48.884;9.160;2024-01-25T09:56:18;11.40;99.90
3466;DHT22;1747;48.884;9.160;2024-01-25T09:58:47;11.30;99.90
3466;DHT22;1747;48.884;9.160;2024-01-25T10:01:16;11.30;99.90
3466;DHT22;1747;48.884;9.160;2024-01-25T10:03:46;11.40;99.90
3466;DHT22;1747;48.884;9.160;2024-01-25T10:06:16;11.30;99.90
3466;DHT22;1747;48.884;9.160;2024-01-25T10:08:44;11.40;99.90
3466;DHT22;1747;48.884;9.160;2024-01-25T10:11:11;11.40;99.90
3466;DHT22;1747;48.884;9.160;2024-01-25T10:13:40;11.50;99.90
3466;DHT22;1747;48.884;9.160;2024-01-25T10:16:11;11.50;99.90
3466;DHT22;1747;48.884;9.160;2024-01-25T10:18:39;11.40;99.90
3466;DHT22;1747;48.884;9.160;2024-01-25T10:21:06;11.40;99.90
3466;DHT22;1747;48.884;9.160;2024-01-25T10:23:34;11.50;99.90
3466;DHT22;1747;48.884;9.160;2024-01-25T10:26:01;11.70;99.90
3466;DHT22;1747;48.884;9.160;2024-01-25T10:28:29;11.80;99.90
3466;DHT22;1747;48.884;9.160;2024-01-25T10:30:57;12.10;99.90
3466;DHT22;1747;48.884;9.160;2024-01-25T10:33:24;12.40;99.90
3466;DHT22;1747;48.884;9.160;2024-01-25T10:35:54;12.60;99.90
3466;DHT22;1747;48.884;9.160;2024-01-25T10:38:25;12.70;99.90
3466;DHT22;1747;48.884;9.160;2024-01-25T10:40:54;12.70;99.90
3466;DHT22;1747;48.884;9.160;2024-01-25T10:43:21;12.80;99.90
3466;DHT22;1747;48.884;9.160;2024-01-25T10:45:48;12.70;99.90
3466;DHT22;1747;48.884;9.160;2024-01-25T10:48:21;12.60;99.90
3466;DHT22;1747;48.884;9.160;2024-01-25T10:50:48;12.70;99.90
3466;DHT22;1747;48.884;9.160;2024-01-25T10:53:15;12.60;99.90
3466;DHT22;1747;48.884;9.160;2024-01-25T10:55:43;12.60;99.90
3466;DHT22;1747;48.884;9.160;2024-01-25T10:58:13;12.50;99.90
3466;DHT22;1747;48.884;9.160;2024-01-25T11:00:40;12.60;99.90
3466;DHT22;1747;48.884;9.160;2024-01-25T11:03:07;12.50;99.90
3466;DHT22;1747;48.884;9.160;2024-01-25T11:05:34;12.60;99.90
3466;DHT22;1747;48.884;9.160;2024-01-25T11:08:01;12.60;99.90
3466;DHT22;1747;48.884;9.160;2024-01-25T11:10:35;12.60;99.90
3466;DHT22;1747;48.884;9.160;2024-01-25T11:13:03;12.40;99.90
3466;DHT22;1747;48.884;9.160;2024-01-25T11:15:33;12.40;99.90
3466;DHT22;1747;48.884;9.160;2024-01-25T11:18:01;12.40;99.90
3466;DHT22;1747;48.884;9.160;2024-01-25T11:20:29;12.30;99.90
3466;DHT22;1747;48.884;9.160;2024-01-25T11:22:57;12.30;99.90
3466;DHT22;1747;48.884;9.160;2024-01-25T11:25:27;12.20;99.90
3466;DHT22;1747;48.884;9.160;2024-01-25T11:27:54;12.20;99.90
3466;DHT22;1747;48.884;9.160;2024-01-25T11:30:21;12.30;99.90
3466;DHT22;1747;48.884;9.160;2024-01-25T11:32:50;12.20;99.90
3466;DHT22;1747;48.884;9.160;2024-01-25T11:35:17;12.20;99.90
3466;DHT22;1747;48.884;9.160;2024-01-25T11:37:45;12.20;99.90
3466;DHT22;1747;48.884;9.160;2024-01-25T11:40:12;12.20;99.90
3466;DHT22;1747;48.884;9.160;2024-01-25T11:42:40;12.30;99.90
3466;DHT22;1747;48.884;9.160;2024-01-25T11:45:09;12.40;99.90
3466;DHT22;1747;48.884;9.160;2024-01-25T11:47:37;12.50;99.90
3466;DHT22;1747;48.884;9.160;2024-01-25T11:50:08;12.60;99.90
3466;DHT22;1747;48.884;9.160;2024-01-25T11:52:35;12.70;99.90
3466;DHT22;1747;48.884;9.160;2024-01-25T11:55:03;12.80;99.90
3466;DHT22;1747;48.884;9.160;2024-01-25T11:57:31;12.90;99.90
3466;DHT22;1747;48.884;9.160;2024-01-25T11:59:58;13.00;99.90
3466;DHT22;1747;48.884;9.160;2024-01-25T12:02:26;13.00;99.90
3466;DHT22;1747;48.884;9.160;2024-01-25T12:04:55;13.00;99.90
3466;DHT22;1747;48.884;9.160;2024-01-25T12:07:24;13.10;99.90
3466;DHT22;1747;48.884;9.160;2024-01-25T12:09:58;13.30;99.90
3466;DHT22;1747;48.884;9.160;2024-01-25T12:12:25;13.30;99.90
3466;DHT22;1747;48.884;9.160;2024-01-25T12:14:57;13.40;99.90
3466;DHT22;1747;48.884;9.160;2024-01-25T12:17:26;13.40;99.90
3466;DHT22;1747;48.884;9.160;2024-01-25T12:19:55;13.50;99.90
3466;DHT22;1747;48.884;9.160;2024-01-25T12:22:23;13.50;99.90
3466;DHT22;1747;48.884;9.160;2024-01-25T12:24:53;13.50;99.90
3466;DHT22;1747;48.884;9.160;2024-01-25T12:27:20;13.40;99.90
3466;DHT22;1747;48.884;9.160;2024-01-25T12:29:48;13.40;99.90
3466;DHT22;1747;48.884;9.160;2024-01-25T12:32:15;13.60;99.90
3466;DHT22;1747;48.884;9.160;2024-01-25T12:34:45;13.70;99.90
3466;DHT22;1747;48.884;9.160;2024-01-25T12:37:18;13.80;99.90
3466;DHT22;1747;48.884;9.160;2024-01-25T12:39:47;14.10;99.90
3466;DHT22;1747;48.884;9.160;2024-01-25T12:42:14;14.30;99.90
3466;DHT22;1747;48.884;9.160;2024-01-25T12:44:41;14.70;99.90
3466;DHT22;1747;48.884;9.160;2024-01-25T12:47:08;15.00;99.90
3466;DHT22;1747;48.884;9.160;2024-01-25T12:49:35;15.30;99.90
3466;DHT22;1747;48.884;9.160;2024-01-25T12:52:04;15.40;99.90
3466;DHT22;1747;48.884;9.160;2024-01-25T12:54:34;15.50;99.90
3466;DHT22;1747;48.884;9.160;2024-01-25T12:57:03;15.70;99.90
3466;DHT22;1747;48.884;9.160;2024-01-25T12:59:31;16.00;99.90
3466;DHT22;1747;48.884;9.160;2024-01-25T13:01:58;16.30;99.90
3466;DHT22;1747;48.884;9.160;2024-01-25T13:04:25;16.50;99.90
3466;DHT22;1747;48.884;9.160;2024-01-25T13:06:53;16.50;99.90
3466;DHT22;1747;48.884;9.160;2024-01-25T13:09:20;16.60;99.90
3466;DHT22;1747;48.884;9.160;2024-01-25T13:11:48;16.70;99.90
3466;DHT22;1747;48.884;9.160;2024-01-25T13:14:21;17.20;99.90
3466;DHT22;1747;48.884;9.160;2024-01-25T13:16:48;17.50;99.90
3466;DHT22;1747;48.884;9.160;2024-01-25T13:19:15;17.70;99.90
3466;DHT22;1747;48.884;9.160;2024-01-25T13:21:42;17.70;99.90
3466;DHT22;1747;48.884;9.160;2024-01-25T13:24:09;17.70;99.90
3466;DHT22;1747;48.884;9.160;2024-01-25T13:26:36;17.60;99.70
3466;DHT22;1747;48.884;9.160;2024-01-25T13:29:03;17.40;99.60
3466;DHT22;1747;48.884;9.160;2024-01-25T13:31:31;17.40;99.90
3466;DHT22;1747;48.884;9.160;2024-01-25T13:33:58;17.50;99.90
3466;DHT22;1747;48.884;9.160;2024-01-25T13:36:25;17.60;99.80
3466;DHT22;1747;48.884;9.160;2024-01-25T13:38:52;17.70;99.80
3466;DHT22;1747;48.884;9.160;2024-01-25T13:41:19;17.90;99.50
3466;DHT22;1747;48.884;9.160;2024-01-25T13:43:45;18.00;99.60
3466;DHT22;1747;48.884;9.160;2024-01-25T13:46:12;17.90;98.50
3466;DHT22;1747;48.884;9.160;2024-01-25T13:48:40;18.00;99.00
3466;DHT22;1747;48.884;9.160;2024-01-25T13:51:07;18.10;98.60
3466;DHT22;1747;48.884;9.160;2024-01-25T13:53:34;18.10;98.20
3466;DHT22;1747;48.884;9.160;2024-01-25T13:56:02;18.00;98.10
3466;DHT22;1747;48.884;9.160;2024-01-25T13:58:29;17.80;98.20
3466;DHT22;1747;48.884;9.160;2024-01-25T14:00:56;17.60;98.20
3466;DHT22;1747;48.884;9.160;2024-01-25T14:03:22;17.50;98.70
3466;DHT22;1747;48.884;9.160;2024-01-25T14:05:51;17.40;98.60
3466;DHT22;1747;48.884;9.160;2024-01-25T14:08:17;17.40;98.50
3466;DHT22;1747;48.884;9.160;2024-01-25T14:10:44;17.50;99.90
3466;DHT22;1747;48.884;9.160;2024-01-25T14:13:11;17.40;98.60
3466;DHT22;1747;48.884;9.160;2024-01-25T14:15:38;17.60;99.50
3466;DHT22;1747;48.884;9.160;2024-01-25T14:18:05;17.60;98.70
3466;DHT22;1747;48.884;9.160;2024-01-25T14:20:32;17.50;98.50
3466;DHT22;1747;48.884;9.160;2024-01-25T14:23:00;17.70;99.60
3466;DHT22;1747;48.884;9.160;2024-01-25T14:25:27;18.10;99.10
3466;DHT22;1747;48.884;9.160;2024-01-25T14:27:54;18.10;98.30
3466;DHT22;1747;48.884;9.160;2024-01-25T14:30:22;18.10;98.90
3466;DHT22;1747;48.884;9.160;2024-01-25T14:32:49;17.90;98.40
3466;DHT22;1747;48.884;9.160;2024-01-25T14:35:15;17.70;98.30
3466;DHT22;1747;48.884;9.160;2024-01-25T14:37:42;17.40;98.80
3466;DHT22;1747;48.884;9.160;2024-01-25T14:40:11;17.10;98.90
3466;DHT22;1747;48.884;9.160;2024-01-25T14:42:38;16.70;99.40
3466;DHT22;1747;48.884;9.160;2024-01-25T14:45:06;16.20;99.40
3466;DHT22;1747;48.884;9.160;2024-01-25T14:47:33;15.90;99.90
3466;DHT22;1747;48.884;9.160;2024-01-25T14:50:00;15.80;99.90
3466;DHT22;1747;48.884;9.160;2024-01-25T14:52:27;15.60;99.90
3466;DHT22;1747;48.884;9.160;2024-01-25T14:54:54;15.40;99.90
3466;DHT22;1747;48.884;9.160;2024-01-25T14:57:22;15.20;99.90
3466;DHT22;1747;48.884;9.160;2024-01-25T14:59:49;15.10;99.90
3466;DHT22;1747;48.884;9.160;2024-01-25T15:02:16;15.00;99.90
3466;DHT22;1747;48.884;9.160;2024-01-25T15:04:43;14.90;99.90
3466;DHT22;1747;48.884;9.160;2024-01-25T15:07:09;14.90;99.90
3466;DHT22;1747;48.884;9.160;2024-01-25T15:09:36;14.70;99.90
3466;DHT22;1747;48.884;9.160;2024-01-25T15:12:03;14.60;99.90
3466;DHT22;1747;48.884;9.160;2024-01-25T15:14:31;14.40;99.90
3466;DHT22;1747;48.884;9.160;2024-01-25T15:16:58;14.20;99.90
3466;DHT22;1747;48.884;9.160;2024-01-25T15:19:25;14.00;99.90
3466;DHT22;1747;48.884;9.160;2024-01-25T15:21:52;13.80;99.90
3466;DHT22;1747;48.884;9.160;2024-01-25T15:24:19;13.70;99.90
3466;DHT22;1747;48.884;9.160;2024-01-25T15:26:46;13.60;99.90
3466;DHT22;1747;48.884;9.160;2024-01-25T15:29:13;13.50;99.90
3466;DHT22;1747;48.884;9.160;2024-01-25T15:31:42;13.60;99.90
3466;DHT22;1747;48.884;9.160;2024-01-25T15:34:09;13.60;99.90
3466;DHT22;1747;48.884;9.160;2024-01-25T15:36:38;13.60;99.90
3466;DHT22;1747;48.884;9.160;2024-01-25T15:39:09;13.40;99.90
3466;DHT22;1747;48.884;9.160;2024-01-25T15:41:36;13.40;99.90
3466;DHT22;1747;48.884;9.160;2024-01-25T15:44:03;13.30;99.90
3466;DHT22;1747;48.884;9.160;2024-01-25T15:46:30;13.30;99.90
3466;DHT22;1747;48.884;9.160;2024-01-25T15:48:58;13.30;99.90
3466;DHT22;1747;48.884;9.160;2024-01-25T15:51:26;13.20;99.90
3466;DHT22;1747;48.884;9.160;2024-01-25T15:53:53;13.20;99.90
3466;DHT22;1747;48.884;9.160;2024-01-25T15:56:20;13.10;99.90
3466;DHT22;1747;48.884;9.160;2024-01-25T15:58:47;13.10;99.90
3466;DHT22;1747;48.884;9.160;2024-01-25T16:01:14;13.10;99.90
3466;DHT22;1747;48.884;9.160;2024-01-25T16:03:41;13.00;99.90
3466;DHT22;1747;48.884;9.160;2024-01-25T16:06:10;13.00;99.90
3466;DHT22;1747;48.884;9.160;2024-01-25T16:08:37;12.90;99.90
3466;DHT22;1747;48.884;9.160;2024-01-25T16:11:04;12.90;99.90
3466;DHT22;1747;48.884;9.160;2024-01-25T16:13:31;12.80;99.90